Time;durP1;ratioP1;P1;durP2;ratioP2;P2;SDS_P1;SDS_P2;PMS_P1;PMS_P2;Temp;Humidity;BMP_temperature;BMP_pressure;BME280_temperature;BME280_humidity;BME280_pressure;Samples;Min_cycle;Max_cycle;Signal;HPM_P1;HPM_P2
2022/08/08 00:00:00;;;;;;;10.07;9.07;;;;;;;14.77;91.10;102404.50;5088616;28;20028;-62
2022/08/08 00:02:39;;;;;;;10.52;9.43;;;;;;;14.76;90.75;102405.34;5088206;28;20421;-63
2022/08/08 00:05:20;;;;;;;9.88;8.98;;;;;;;14.74;91.22;102399.19;5075751;28;20032;-63
2022/08/08 00:08:12;;;;;;;10.05;8.95;;;;;;;14.65;91.21;102399.72;5075409;28;20139;-63
2022/08/08 00:11:05;;;;;;;9.88;8.95;;;;;;;14.58;92.51;102402.91;5088403;28;20038;-62
2022/08/08 00:13:33;;;;;;;9.38;8.48;;;;;;;14.58;92.47;102402.91;5088230;28;20500;-62
2022/08/08 00:16:07;;;;;;;10.30;9.18;;;;;;;14.57;92.23;102404.59;5087976;28;20384;-62
2022/08/08 00:18:53;;;;;;;10.93;8.52;;;;;;;14.54;92.61;102399.28;5088078;28;20039;-62
2022/08/08 00:21:24;;;;;;;10.52;8.77;;;;;;;14.51;93.19;102406.97;5088110;28;20040;-63
2022/08/08 00:23:56;;;;;;;9.07;8.18;;;;;;;14.46;93.27;102398.09;5087910;28;20027;-62
2022/08/08 00:26:26;;;;;;;9.10;8.23;;;;;;;14.47;93.39;102405.06;5087665;28;20372;-62
2022/08/08 00:29:01;;;;;;;9.25;8.32;;;;;;;14.45;93.05;102411.94;5087925;28;20089;-63
2022/08/08 00:31:33;;;;;;;9.23;8.25;;;;;;;14.44;93.17;102416.28;5087612;28;20028;-62
2022/08/08 00:37:09;;;;;;;10.52;9.35;;;;;;;14.32;94.37;102419.25;5075107;28;20042;-62
2022/08/08 00:39:55;;;;;;;10.18;8.98;;;;;;;14.22;95.13;102415.38;5087097;28;20050;-62
2022/08/08 00:42:39;;;;;;;11.10;9.40;;;;;;;14.15;95.20;102413.34;5071108;28;20020;-62
2022/08/08 00:45:40;;;;;;;10.43;9.40;;;;;;;14.06;96.53;102419.06;5087520;28;20023;-62
2022/08/08 00:48:42;;;;;;;10.60;9.20;;;;;;;14.07;96.81;102418.22;5087465;28;20030;-63
2022/08/08 00:51:19;;;;;;;12.52;9.63;;;;;;;14.09;96.26;102419.19;5077092;28;20024;-62
2022/08/08 00:54:08;;;;;;;10.90;9.20;;;;;;;14.11;96.04;102403.59;5085941;28;20028;-62
2022/08/08 00:57:27;;;;;;;10.75;9.68;;;;;;;14.13;96.26;102399.34;5087898;28;20038;-63
2022/08/08 01:00:07;;;;;;;11.05;9.95;;;;;;;14.07;96.63;102399.97;5002291;28;20279;-62
2022/08/08 01:03:18;;;;;;;11.13;9.95;;;;;;;14.01;96.82;102399.72;5072529;28;20027;-62
2022/08/08 01:06:07;;;;;;;11.30;10.20;;;;;;;13.96;97.14;102403.84;5087014;28;20031;-62
2022/08/08 01:08:38;;;;;;;12.35;11.15;;;;;;;13.93;97.47;102391.56;5086919;28;20379;-62
2022/08/08 01:11:19;;;;;;;12.32;11.02;;;;;;;13.90;98.34;102397.56;5068708;28;20044;-63
2022/08/08 01:14:11;;;;;;;13.65;11.10;;;;;;;13.83;99.13;102399.81;5086839;28;20387;-62
2022/08/08 01:16:59;;;;;;;11.63;10.52;;;;;;;13.79;99.71;102404.00;5077676;28;20503;-62
2022/08/08 01:19:36;;;;;;;11.73;10.63;;;;;;;13.76;99.89;102393.47;5086393;28;20023;-62
2022/08/08 01:22:24;;;;;;;11.77;10.48;;;;;;;13.75;99.64;102402.09;5087580;28;20147;-62
2022/08/08 01:25:16;;;;;;;12.15;10.65;;;;;;;13.76;99.63;102398.69;5075087;28;20423;-62
2022/08/08 01:27:53;;;;;;;12.63;11.30;;;;;;;13.67;100.00;102402.63;5086573;28;20036;-62
2022/08/08 01:30:33;;;;;;;12.77;11.45;;;;;;;13.64;100.00;102396.41;5086967;28;20102;-62
2022/08/08 01:33:24;;;;;;;13.05;11.35;;;;;;;13.60;100.00;102395.38;5086716;28;20039;-62
2022/08/08 01:36:13;;;;;;;13.68;11.60;;;;;;;13.56;100.00;102393.47;5087160;28;20027;-63
2022/08/08 01:39:16;;;;;;;14.25;11.60;;;;;;;13.55;100.00;102394.28;5086657;28;20073;-63
2022/08/08 01:42:07;;;;;;;15.35;11.98;;;;;;;13.51;100.00;102390.63;5066303;28;20096;-62
2022/08/08 01:45:10;;;;;;;13.35;12.00;;;;;;;13.47;100.00;102385.22;5086742;28;20024;-63
2022/08/08 01:48:09;;;;;;;13.93;12.43;;;;;;;13.42;100.00;102393.69;5074559;28;20036;-62
2022/08/08 01:51:03;;;;;;;13.98;12.48;;;;;;;13.36;100.00;102392.53;5086432;28;20426;-63
2022/08/08 01:53:50;;;;;;;14.15;12.70;;;;;;;13.27;100.00;102380.91;5086701;28;20024;-62
2022/08/08 01:56:25;;;;;;;14.38;12.80;;;;;;;13.28;100.00;102387.88;5086639;28;20130;-62
2022/08/08 01:59:22;;;;;;;13.07;11.80;;;;;;;13.26;100.00;102393.84;5086404;28;20020;-62
2022/08/08 02:02:07;;;;;;;13.40;12.13;;;;;;;13.30;100.00;102403.56;5085872;28;20085;-62
2022/08/08 02:04:56;;;;;;;14.52;11.55;;;;;;;13.32;100.00;102401.91;5071449;28;20099;-62
2022/08/08 02:07:29;;;;;;;12.60;11.38;;;;;;;13.35;100.00;102398.59;5086391;28;20319;-62
2022/08/08 02:10:16;;;;;;;12.50;11.38;;;;;;;13.32;100.00;102401.91;5086643;28;20378;-62
2022/08/08 02:12:50;;;;;;;12.25;11.05;;;;;;;13.28;100.00;102394.78;5085452;28;20419;-62
2022/08/08 02:15:20;;;;;;;13.13;11.82;;;;;;;13.21;100.00;102404.94;5086734;28;20047;-63
2022/08/08 02:17:55;;;;;;;13.93;12.40;;;;;;;13.15;100.00;102398.56;5084629;28;20028;-62
2022/08/08 02:22:30;;;;;;;13.88;12.45;;;;;;;13.09;100.00;102404.38;5087731;28;20047;-62
2022/08/08 02:23:44;;;;;;;13.75;12.10;;;;;;;13.04;100.00;102395.44;5078856;28;20411;-62
2022/08/08 02:26:25;;;;;;;13.23;11.93;;;;;;;13.02;100.00;102403.19;5089830;28;20051;-62
2022/08/08 02:29:16;;;;;;;;;;;;;;;13.02;100.00;102394.47;5077734;28;20076;-62
2022/08/08 02:32:23;;;;;;;13.80;12.45;;;;;;;12.97;100.00;102399.44;5072025;28;19954;-63
2022/08/08 02:35:02;;;;;;;13.38;12.07;;;;;;;12.93;100.00;102403.63;5043578;28;20038;-62
2022/08/08 02:37:55;;;;;;;17.50;12.68;;;;;;;12.86;100.00;102404.19;5090007;28;20515;-62
2022/08/08 02:40:57;;;;;;;13.57;11.82;;;;;;;12.81;100.00;102403.03;5089514;28;20080;-62
2022/08/08 02:44:12;;;;;;;15.20;12.55;;;;;;;12.75;100.00;102401.06;5089135;28;20085;-62
2022/08/08 02:47:23;;;;;;;13.38;11.48;;;;;;;12.74;100.00;102396.66;5090047;28;20123;-62
2022/08/08 02:50:13;;;;;;;12.85;11.52;;;;;;;12.73;100.00;102395.78;5090024;28;20036;-62
2022/08/08 02:53:25;;;;;;;18.58;13.25;;;;;;;12.70;100.00;102400.81;5089327;28;20024;-61
2022/08/08 02:56:07;;;;;;;14.90;13.40;;;;;;;12.67;100.00;102397.19;5089763;28;20024;-62
2022/08/08 02:59:18;;;;;;;14.98;13.35;;;;;;;12.63;100.00;102395.28;5089704;28;20051;-61
2022/08/08 03:02:26;;;;;;;14.27;12.73;;;;;;;12.60;100.00;102396.00;5089315;28;20103;-62
2022/08/08 03:05:18;;;;;;;13.98;12.57;;;;;;;12.60;100.00;102398.59;5086120;28;20282;-62
2022/08/08 03:08:12;;;;;;;14.68;13.15;;;;;;;12.59;100.00;102404.63;5089618;28;20027;-61
2022/08/08 03:10:59;;;;;;;13.38;11.98;;;;;;;12.60;100.00;102403.81;5089260;28;20495;-61
2022/08/08 03:14:01;;;;;;;13.07;11.70;;;;;;;12.65;100.00;102404.91;5089631;28;20043;-62
2022/08/08 03:16:49;;;;;;;15.20;12.50;;;;;;;12.67;100.00;102399.78;5077900;28;20085;-62
2022/08/08 03:19:37;;;;;;;14.13;11.68;;;;;;;12.65;100.00;102399.72;5088115;28;20039;-62
2022/08/08 03:22:02;;;;;;;13.85;12.45;;;;;;;12.65;100.00;102404.91;5089219;28;20601;-61
2022/08/08 03:24:27;;;;;;;13.48;12.10;;;;;;;12.65;100.00;102407.50;5089277;28;20032;-61
2022/08/08 03:27:03;;;;;;;13.43;12.07;;;;;;;12.67;100.00;102405.88;5088898;28;20028;-62
2022/08/08 03:29:37;;;;;;;13.13;11.85;;;;;;;12.70;100.00;102406.03;5088915;28;20024;-62
2022/08/08 03:34:46;;;;;;;13.85;12.57;;;;;;;12.68;100.00;102412.84;5089557;28;20654;-61
2022/08/08 03:37:16;;;;;;;14.77;13.27;;;;;;;12.63;100.00;102411.75;5088974;28;20024;-62
2022/08/08 03:39:43;;;;;;;14.25;12.95;;;;;;;12.56;100.00;102412.25;5088698;28;20040;-62
2022/08/08 03:42:16;;;;;;;14.18;12.65;;;;;;;12.48;100.00;102411.91;5089247;28;20028;-61
2022/08/08 03:44:44;;;;;;;13.68;12.18;;;;;;;12.40;100.00;102414.13;5088485;28;20044;-62
2022/08/08 03:47:10;;;;;;;14.50;13.00;;;;;;;12.37;100.00;102419.16;5088567;28;20028;-62
2022/08/08 03:49:37;;;;;;;15.05;12.80;;;;;;;12.39;100.00;102420.13;5088042;28;20035;-62
2022/08/08 03:52:03;;;;;;;13.45;12.07;;;;;;;12.42;100.00;102421.97;5088607;28;20071;-62
2022/08/08 03:54:28;;;;;;;16.25;12.95;;;;;;;12.43;100.00;102432.47;5088785;28;20491;-61
2022/08/08 03:56:53;;;;;;;13.85;12.55;;;;;;;12.37;100.00;102426.97;5087899;28;20032;-62
2022/08/08 03:59:19;;;;;;;15.02;13.60;;;;;;;12.33;100.00;102435.41;5087336;28;20042;-62
2022/08/08 04:01:44;;;;;;;14.10;12.70;;;;;;;12.32;100.00;102431.03;5086878;28;20504;-62
2022/08/08 04:04:10;;;;;;;13.48;12.18;;;;;;;12.25;100.00;102422.94;5086753;28;20467;-62
2022/08/08 04:06:37;;;;;;;13.48;12.18;;;;;;;12.23;100.00;102428.88;5085725;28;20472;-62
2022/08/08 04:09:05;;;;;;;16.52;12.68;;;;;;;12.19;100.00;102433.03;5085655;28;20043;-61
2022/08/08 04:11:31;;;;;;;14.38;12.88;;;;;;;12.17;100.00;102432.06;5086373;28;20027;-62
2022/08/08 04:13:57;;;;;;;13.40;12.05;;;;;;;12.20;100.00;102437.41;5087392;28;20082;-62
2022/08/08 04:16:23;;;;;;;14.88;12.77;;;;;;;12.24;100.00;102435.84;5087331;28;20059;-62
2022/08/08 04:18:48;;;;;;;16.75;13.63;;;;;;;12.29;100.00;102425.66;5088261;28;20024;-62
2022/08/08 04:21:15;;;;;;;14.45;13.05;;;;;;;12.24;100.00;102428.94;5087846;28;20528;-61
2022/08/08 04:23:40;;;;;;;14.60;13.20;;;;;;;12.24;100.00;102433.25;5088280;28;20523;-61
2022/08/08 04:26:06;;;;;;;14.10;12.48;;;;;;;12.23;100.00;102437.53;5087930;28;20111;-62
2022/08/08 04:28:32;;;;;;;14.82;13.20;;;;;;;12.22;100.00;102433.19;5088426;28;20194;-62
2022/08/08 04:30:57;;;;;;;14.93;13.40;;;;;;;12.22;100.00;102435.78;5087764;28;20024;-61
2022/08/08 04:33:23;;;;;;;17.33;14.00;;;;;;;12.25;100.00;102435.91;5087940;28;20054;-62
2022/08/08 04:35:48;;;;;;;14.23;12.77;;;;;;;12.27;100.00;102429.94;5087494;28;20472;-61
2022/08/08 04:38:13;;;;;;;15.80;14.27;;;;;;;12.22;100.00;102435.78;5087602;28;20123;-61
2022/08/08 04:40:39;;;;;;;16.63;14.98;;;;;;;12.21;100.00;102447.00;5087389;28;20126;-62
2022/08/08 04:43:04;;;;;;;15.95;14.35;;;;;;;12.24;100.00;102447.16;5087183;28;20024;-61
2022/08/08 04:45:30;;;;;;;15.73;14.15;;;;;;;12.28;100.00;102458.59;5087606;28;20020;-62
2022/08/08 04:47:58;;;;;;;15.38;13.82;;;;;;;12.31;100.00;102453.53;5087675;28;20028;-62
2022/08/08 04:50:24;;;;;;;16.38;14.80;;;;;;;12.36;100.00;102464.16;5087583;28;20028;-62
2022/08/08 04:52:49;;;;;;;15.95;14.55;;;;;;;12.40;100.00;102460.91;5087648;28;20077;-62
2022/08/08 04:55:15;;;;;;;15.25;13.60;;;;;;;12.43;100.00;102468.84;5087619;28;20027;-61
2022/08/08 04:57:40;;;;;;;16.52;14.60;;;;;;;12.47;100.00;102470.81;5087505;28;20024;-61
2022/08/08 05:00:07;;;;;;;18.95;15.10;;;;;;;12.48;100.00;102472.56;5087499;28;20101;-61
2022/08/08 05:02:32;;;;;;;16.05;14.48;;;;;;;12.52;100.00;102470.16;5087702;28;20746;-61
2022/08/08 05:04:58;;;;;;;16.77;15.10;;;;;;;12.53;100.00;102471.91;5073316;28;20039;-61
2022/08/08 05:07:24;;;;;;;15.18;13.77;;;;;;;12.59;100.00;102475.72;5086328;28;20023;-62
2022/08/08 05:09:49;;;;;;;17.13;15.57;;;;;;;12.64;100.00;102483.75;5086718;28;20024;-61
2022/08/08 05:12:14;;;;;;;16.38;14.85;;;;;;;12.67;100.00;102477.81;5086432;28;20028;-62
2022/08/08 05:14:39;;;;;;;19.52;17.45;;;;;;;12.70;100.00;102468.44;5086968;28;20511;-61
2022/08/08 05:17:05;;;;;;;20.17;18.17;;;;;;;12.78;100.00;102478.34;5086747;28;20418;-61
2022/08/08 05:19:30;;;;;;;19.70;17.65;;;;;;;12.86;100.00;102477.03;5086934;28;20024;-62
2022/08/08 05:21:55;;;;;;;20.48;18.45;;;;;;;12.96;100.00;102481.84;5087284;28;20020;-61
2022/08/08 05:24:21;;;;;;;21.33;19.30;;;;;;;13.04;100.00;102481.31;5086695;28;20028;-63
2022/08/08 05:26:47;;;;;;;22.13;20.02;;;;;;;13.11;100.00;102480.81;5086537;28;20046;-62
2022/08/08 05:29:12;;;;;;;20.17;18.00;;;;;;;13.21;100.00;102483.03;5087318;28;20032;-61
2022/08/08 05:31:38;;;;;;;19.63;17.75;;;;;;;13.31;100.00;102483.47;5087042;28;20115;-62
2022/08/08 05:34:05;;;;;;;21.52;19.20;;;;;;;13.39;100.00;102482.09;5087052;28;20111;-62
2022/08/08 05:36:34;;;;;;;20.98;18.80;;;;;;;13.50;100.00;102479.09;5087078;28;20027;-64
2022/08/08 05:39:04;;;;;;;19.17;17.40;;;;;;;13.61;100.00;102477.00;5076919;28;20496;-63
2022/08/08 05:41:34;;;;;;;19.98;17.88;;;;;;;13.72;100.00;102485.31;5085157;28;20130;-63
2022/08/08 05:44:15;;;;;;;19.58;16.92;;;;;;;13.84;100.00;102480.66;5086296;28;20077;-62
2022/08/08 05:46:40;;;;;;;;;;;;;;;13.99;100.00;102489.97;5087108;28;20024;-63
2022/08/08 05:49:09;;;;;;;16.90;15.27;;;;;;;14.13;100.00;102486.28;5086809;28;19923;-63
2022/08/08 05:51:34;;;;;;;16.67;14.95;;;;;;;14.28;100.00;102483.41;5086732;28;20103;-62
2022/08/08 05:54:00;;;;;;;16.98;15.25;;;;;;;14.42;100.00;102477.91;5086529;28;20066;-62
2022/08/08 05:56:27;;;;;;;15.00;13.50;;;;;;;14.58;100.00;102482.06;5086539;28;20535;-63
2022/08/08 05:59:17;;;;;;;14.88;13.35;;;;;;;14.77;100.00;102482.78;5086726;28;20036;-62
2022/08/08 06:01:49;;;;;;;13.95;12.25;;;;;;;14.94;100.00;102486.13;5072390;28;20031;-63
2022/08/08 06:04:21;;;;;;;17.45;12.93;;;;;;;15.10;100.00;102492.84;5054872;28;20025;-62
2022/08/08 06:06:47;;;;;;;;;;;;;;;15.26;100.00;102493.44;5066592;28;20031;-62
2022/08/08 06:09:15;;;;;;;14.23;11.27;;;;;;;15.42;100.00;102499.25;5075015;28;19915;-62
2022/08/08 06:11:41;;;;;;;12.60;11.40;;;;;;;15.56;100.00;102489.34;5067519;28;20539;-62
2022/08/08 06:14:08;;;;;;;11.93;10.73;;;;;;;15.71;100.00;102491.63;5055536;28;20483;-63
2022/08/08 06:16:35;;;;;;;12.27;11.05;;;;;;;15.90;100.00;102492.31;5052105;28;20017;-62
2022/08/08 06:19:01;;;;;;;12.13;10.80;;;;;;;16.09;100.00;102499.13;5053816;28;20376;-63
2022/08/08 06:21:28;;;;;;;16.58;10.80;;;;;;;16.20;100.00;102496.88;5053479;28;20029;-62
2022/08/08 06:23:53;;;;;;;12.50;10.98;;;;;;;16.33;100.00;102499.06;5051040;28;20103;-62
2022/08/08 06:26:20;;;;;;;10.90;9.85;;;;;;;16.52;100.00;102504.94;5054424;28;20123;-63
2022/08/08 06:29:01;;;;;;;10.68;9.65;;;;;;;16.73;100.00;102503.00;5064485;28;20009;-62
2022/08/08 06:31:32;;;;;;;10.57;9.48;;;;;;;16.97;98.91;102508.13;5062168;28;20102;-62
2022/08/08 06:34:11;;;;;;;11.27;10.18;;;;;;;17.17;97.13;102505.28;5078164;28;20527;-62
2022/08/08 06:36:40;;;;;;;10.73;8.63;;;;;;;17.29;94.61;102510.00;5077217;28;20023;-63
2022/08/08 06:39:11;;;;;;;10.15;9.00;;;;;;;17.44;94.70;102509.59;5081814;28;20028;-63
2022/08/08 06:41:55;;;;;;;9.63;7.80;;;;;;;17.61;93.38;102509.22;5082879;28;20055;-63
2022/08/08 06:44:23;;;;;;;8.90;8.02;;;;;;;17.79;92.33;102513.19;5085594;28;20020;-63
2022/08/08 06:46:48;;;;;;;9.48;8.57;;;;;;;17.97;91.38;102511.06;5078211;28;20039;-63
2022/08/08 06:49:14;;;;;;;8.63;7.72;;;;;;;18.18;90.96;102522.16;5069768;28;20024;-63
2022/08/08 06:51:40;;;;;;;8.38;7.57;;;;;;;18.35;88.17;102522.59;5078986;28;20035;-64
2022/08/08 06:54:07;;;;;;;7.93;7.22;;;;;;;18.42;85.77;102518.41;5082016;28;20028;-63
2022/08/08 06:56:34;;;;;;;9.05;8.13;;;;;;;18.54;85.44;102517.84;5081648;28;20024;-63
2022/08/08 06:58:59;;;;;;;8.00;7.20;;;;;;;18.69;85.85;102518.19;5065111;28;20028;-63
2022/08/08 07:01:28;;;;;;;8.52;7.60;;;;;;;18.91;85.28;102517.84;5083173;28;20031;-63
2022/08/08 07:04:02;;;;;;;10.48;8.10;;;;;;;19.12;83.71;102517.50;5074503;28;20597;-63
2022/08/08 07:06:31;;;;;;;11.77;9.23;;;;;;;19.18;81.81;102520.25;5078545;28;20043;-63
2022/08/08 07:09:07;;;;;;;10.73;9.63;;;;;;;19.20;80.30;102526.44;5080234;28;20020;-63
2022/08/08 07:11:39;;;;;;;7.78;7.15;;;;;;;19.28;81.00;102528.34;5087618;28;20039;-63
2022/08/08 07:14:06;;;;;;;8.77;6.55;;;;;;;19.37;79.95;102528.56;5087287;28;20484;-63
2022/08/08 07:16:53;;;;;;;7.18;6.38;;;;;;;19.47;79.04;102534.00;5087486;28;20028;-63
2022/08/08 07:19:37;;;;;;;7.22;6.45;;;;;;;19.56;79.06;102523.69;5074875;28;20024;-64
2022/08/08 07:22:05;;;;;;;7.95;6.13;;;;;;;19.59;76.30;102536.88;5075318;28;20054;-63
2022/08/08 07:24:43;;;;;;;5.68;5.07;;;;;;;19.76;77.11;102531.09;5064353;28;20017;-63
2022/08/08 07:27:11;;;;;;;5.20;4.70;;;;;;;19.94;77.61;102532.31;5069670;28;20376;-63
2022/08/08 07:29:38;;;;;;;4.75;4.22;;;;;;;20.10;75.31;102537.06;5064129;28;20381;-63
2022/08/08 07:32:06;;;;;;;5.82;4.47;;;;;;;20.26;74.06;102537.34;5071531;28;20098;-63
2022/08/08 07:34:33;;;;;;;6.38;3.65;;;;;;;20.40;73.73;102530.59;5071504;28;20028;-61
2022/08/08 07:37:01;;;;;;;7.50;3.72;;;;;;;20.53;74.50;102536.06;5062967;28;20348;-62
2022/08/08 07:39:29;;;;;;;5.03;3.15;;;;;;;20.71;73.53;102534.59;5073550;28;20024;-62
2022/08/08 07:41:54;;;;;;;6.03;3.35;;;;;;;20.84;72.05;102536.56;5082554;28;20479;-61
2022/08/08 07:44:22;;;;;;;3.92;3.45;;;;;;;20.95;72.38;102538.53;5084684;28;20044;-61
2022/08/08 07:46:47;;;;;;;3.10;2.72;;;;;;;21.17;72.20;102538.84;5074873;28;20024;-61
2022/08/08 07:49:12;;;;;;;4.32;3.13;;;;;;;21.40;70.51;102535.63;5079719;28;20054;-61
2022/08/08 07:51:40;;;;;;;5.38;3.40;;;;;;;21.58;68.89;102537.63;5071556;28;20484;-61
2022/08/08 07:54:26;;;;;;;5.65;3.30;;;;;;;21.78;68.10;102532.59;5081487;28;20028;-61
2022/08/08 07:57:29;;;;;;;5.30;3.08;;;;;;;21.96;66.85;102541.63;5064779;28;20104;-61
2022/08/08 08:00:04;;;;;;;3.83;2.45;;;;;;;22.05;65.29;102541.75;5017871;28;20505;-61
2022/08/08 08:02:42;;;;;;;4.38;2.45;;;;;;;22.24;65.58;102536.63;5076640;28;20092;-61
2022/08/08 08:05:20;;;;;;;5.13;2.38;;;;;;;22.41;62.95;102538.56;5065998;28;20072;-61
2022/08/08 08:07:48;;;;;;;2.45;1.92;;;;;;;22.60;60.24;102549.25;5058452;28;20089;-61
2022/08/08 08:10:17;;;;;;;3.33;1.85;;;;;;;22.80;61.78;102546.81;5069641;28;20240;-61
2022/08/08 08:12:50;;;;;;;4.80;2.17;;;;;;;23.02;60.02;102546.97;5071572;28;20321;-61
2022/08/08 08:15:18;;;;;;;2.60;2.08;;;;;;;23.19;57.95;102549.72;5075718;28;20079;-61
2022/08/08 08:17:45;;;;;;;4.10;1.50;;;;;;;23.21;58.28;102553.25;5077158;28;20047;-61
2022/08/08 08:20:14;;;;;;;3.15;1.80;;;;;;;23.34;57.28;102555.97;5063695;28;20506;-61
2022/08/08 08:22:39;;;;;;;4.00;1.90;;;;;;;23.57;58.74;102549.94;5067126;28;20442;-61
2022/08/08 08:25:05;;;;;;;4.07;2.00;;;;;;;23.80;55.96;102547.38;5073603;28;20024;-61
2022/08/08 08:27:30;;;;;;;4.70;1.63;;;;;;;23.95;55.84;102551.84;5074644;28;20578;-61
2022/08/08 08:29:56;;;;;;;4.38;1.90;;;;;;;24.10;54.64;102558.03;5078404;28;20111;-61
2022/08/08 08:32:21;;;;;;;4.18;1.67;;;;;;;24.29;54.34;102560.75;5080418;28;20430;-61
2022/08/08 08:34:48;;;;;;;2.70;1.20;;;;;;;24.40;54.84;102561.66;5080936;28;20077;-61
2022/08/08 08:37:13;;;;;;;3.45;1.65;;;;;;;24.59;53.67;102564.31;5085158;28;20239;-61
2022/08/08 08:39:38;;;;;;;3.33;1.38;;;;;;;24.65;52.20;102559.00;5080056;28;20121;-61
2022/08/08 08:42:04;;;;;;;5.68;1.60;;;;;;;24.76;54.86;102564.31;5087428;28;20034;-61
2022/08/08 08:44:30;;;;;;;3.58;1.88;;;;;;;24.89;53.32;102564.28;5088358;28;20055;-61
2022/08/08 08:46:55;;;;;;;2.35;1.10;;;;;;;24.98;51.46;102563.41;5087703;28;20028;-61
2022/08/08 08:49:21;;;;;;;4.22;1.58;;;;;;;24.93;51.57;102559.00;5087886;28;20038;-61
2022/08/08 08:51:48;;;;;;;4.15;1.73;;;;;;;25.01;51.44;102561.66;5086915;28;20027;-61
2022/08/08 08:54:16;;;;;;;4.03;1.63;;;;;;;25.13;52.36;102565.19;5087690;28;20517;-62
2022/08/08 08:56:41;;;;;;;5.00;1.67;;;;;;;25.23;51.42;102560.72;5087727;28;20024;-62
2022/08/08 08:59:08;;;;;;;4.28;1.88;;;;;;;25.28;51.90;102566.88;5073351;28;20028;-60
2022/08/08 09:01:37;;;;;;;3.22;1.35;;;;;;;25.32;51.21;102558.03;5063045;28;20154;-61
2022/08/08 09:04:23;;;;;;;4.38;1.30;;;;;;;25.30;49.61;102562.47;5062470;28;20024;-62
2022/08/08 09:06:52;;;;;;;2.00;1.27;;;;;;;25.31;48.93;102561.59;5062504;28;20486;-61
2022/08/08 09:09:24;;;;;;;2.58;1.38;;;;;;;25.35;49.71;102567.75;5064036;28;20114;-62
2022/08/08 09:11:52;;;;;;;3.42;1.40;;;;;;;25.40;49.25;102561.53;5057477;28;20438;-61
2022/08/08 09:14:22;;;;;;;1.88;1.00;;;;;;;25.45;47.28;102564.19;5054307;28;20423;-61
2022/08/08 09:16:49;;;;;;;1.38;1.10;;;;;;;25.46;47.58;102570.34;5062114;28;20020;-61
2022/08/08 09:19:15;;;;;;;4.15;1.30;;;;;;;25.21;47.44;102563.38;5072759;28;20040;-61
2022/08/08 09:21:41;;;;;;;3.50;1.58;;;;;;;25.23;48.81;102564.25;5069109;28;20448;-61
2022/08/08 09:24:08;;;;;;;4.22;1.30;;;;;;;25.30;49.27;102568.66;5070641;28;20043;-61
2022/08/08 09:26:51;;;;;;;3.65;1.20;;;;;;;25.36;49.90;102562.47;5073085;28;20023;-61
2022/08/08 09:29:21;;;;;;;2.45;1.10;;;;;;;25.46;50.08;102573.00;5074339;28;20024;-62
2022/08/08 09:31:52;;;;;;;1.45;1.00;;;;;;;25.48;49.95;102565.94;5076870;28;20164;-60
2022/08/08 09:34:19;;;;;;;2.83;1.20;;;;;;;25.38;49.47;102563.31;5079622;28;20500;-64
2022/08/08 09:36:47;;;;;;;4.40;1.40;;;;;;;25.34;48.96;102566.00;5081945;28;20081;-62
2022/08/08 09:39:20;;;;;;;2.88;1.35;;;;;;;25.33;48.63;102561.59;5074095;28;20392;-62
2022/08/08 09:41:59;;;;;;;2.88;1.08;;;;;;;25.40;47.86;102556.22;5065370;28;20127;-62
2022/08/08 09:44:30;;;;;;;3.80;1.20;;;;;;;25.42;47.58;102562.41;5065884;28;20105;-62
2022/08/08 09:46:56;;;;;;;3.85;1.33;;;;;;;25.55;47.51;102559.72;5077651;28;20025;-62
2022/08/08 09:49:22;;;;;;;2.72;1.30;;;;;;;25.72;50.33;102553.50;5069637;28;20027;-62
2022/08/08 09:51:53;;;;;;;2.85;1.45;;;;;;;25.89;50.00;102556.94;5086369;28;20039;-62
2022/08/08 09:54:23;;;;;;;2.80;1.25;;;;;;;25.54;49.09;102560.63;5086483;28;20099;-62
2022/08/08 09:56:54;;;;;;;2.20;0.80;;;;;;;25.10;49.58;102562.50;5086724;28;20066;-62
2022/08/08 09:59:28;;;;;;;1.75;1.10;;;;;;;24.77;49.63;102562.53;5086535;28;20123;-62
2022/08/08 10:01:55;;;;;;;1.70;1.00;;;;;;;24.41;51.53;102563.41;5086730;28;20056;-62
2022/08/08 10:04:25;;;;;;;2.40;1.00;;;;;;;24.14;52.53;102562.44;5085942;28;20028;-62
2022/08/08 10:06:52;;;;;;;2.53;1.35;;;;;;;23.93;52.42;102558.88;5087043;28;20452;-62
2022/08/08 10:09:33;;;;;;;4.25;1.25;;;;;;;24.10;52.97;102558.94;5086795;28;20495;-62
2022/08/08 10:12:03;;;;;;;2.95;1.02;;;;;;;24.49;52.51;102565.19;5086784;28;20016;-62
2022/08/08 10:14:36;;;;;;;1.15;0.80;;;;;;;24.86;52.68;102567.81;5079447;28;20025;-62
2022/08/08 10:17:06;;;;;;;2.60;1.45;;;;;;;25.03;50.10;102564.28;5066166;28;20369;-62
2022/08/08 10:19:40;;;;;;;2.70;1.42;;;;;;;25.09;51.94;102559.00;5069765;28;20416;-62
2022/08/08 10:22:07;;;;;;;2.78;1.10;;;;;;;25.34;51.92;102560.69;5062995;28;20032;-62
2022/08/08 10:24:34;;;;;;;2.50;1.10;;;;;;;25.59;50.44;102556.16;5075523;28;20119;-62
2022/08/08 10:27:05;;;;;;;3.42;1.20;;;;;;;25.82;49.55;102555.19;5080408;28;20460;-62
2022/08/08 10:29:38;;;;;;;3.03;0.85;;;;;;;25.60;48.18;102555.28;5074155;28;20028;-63
2022/08/08 10:34:56;;;;;;;2.63;1.10;;;;;;;25.05;50.03;102557.22;5062568;28;20027;-62
2022/08/08 10:37:26;;;;;;;3.80;1.13;;;;;;;25.19;51.54;102562.50;5059779;28;20158;-62
2022/08/08 10:39:53;;;;;;;1.27;0.77;;;;;;;25.51;51.78;102550.88;5063964;28;20590;-62
2022/08/08 10:42:21;;;;;;;2.20;1.27;;;;;;;25.82;51.14;102555.19;5064808;28;20254;-62
2022/08/08 10:44:46;;;;;;;2.42;0.80;;;;;;;26.11;48.75;102551.50;5068168;28;20029;-62
2022/08/08 10:47:17;;;;;;;1.98;0.90;;;;;;;26.32;48.33;102554.00;5064581;28;20454;-62
2022/08/08 10:49:49;;;;;;;1.83;0.65;;;;;;;26.51;48.23;102549.47;5067189;28;20025;-61
2022/08/08 10:52:33;;;;;;;2.28;1.10;;;;;;;26.75;46.78;102550.09;5074585;28;20031;-62
2022/08/08 10:55:05;;;;;;;4.13;1.10;;;;;;;26.62;46.16;102558.19;5083468;28;20485;-62
2022/08/08 10:57:35;;;;;;;1.90;0.88;;;;;;;26.27;46.20;102551.38;5066939;28;20107;-62
2022/08/08 11:00:01;;;;;;;3.90;1.38;;;;;;;25.93;46.83;102551.59;5065594;28;20537;-62
2022/08/08 11:02:30;;;;;;;2.30;0.95;;;;;;;25.73;46.68;102556.13;5061333;28;20021;-63
2022/08/08 11:04:57;;;;;;;1.92;1.00;;;;;;;25.84;47.63;102550.78;5066884;28;20086;-62
2022/08/08 11:07:26;;;;;;;3.08;0.98;;;;;;;25.99;47.02;102552.47;5065679;28;20032;-62
2022/08/08 11:09:51;;;;;;;1.92;0.80;;;;;;;26.10;46.13;102548.84;5069067;28;20089;-62
2022/08/08 11:12:17;;;;;;;3.92;0.90;;;;;;;26.09;45.16;102550.63;5068958;28;20020;-62
2022/08/08 11:14:56;;;;;;;1.73;0.80;;;;;;;26.01;45.21;102549.78;5069769;28;20020;-62
2022/08/08 11:17:25;;;;;;;3.00;0.75;;;;;;;26.10;44.91;102547.06;5064558;28;20025;-63
2022/08/08 11:19:52;;;;;;;1.98;0.70;;;;;;;26.19;44.28;102553.22;5061999;28;20017;-62
2022/08/08 11:22:23;;;;;;;3.53;1.20;;;;;;;25.87;44.54;102548.09;5065700;28;20017;-62
2022/08/08 11:24:49;;;;;;;4.72;0.88;;;;;;;25.49;46.63;102536.75;5066271;28;20020;-62
2022/08/08 11:27:16;;;;;;;2.25;0.70;;;;;;;25.63;48.11;102538.47;5066545;28;20044;-61
2022/08/08 11:29:41;;;;;;;0.63;0.50;;;;;;;25.90;45.62;102529.47;5064379;28;20025;-62
2022/08/08 11:32:09;;;;;;;2.15;0.73;;;;;;;26.14;46.40;102531.97;5067336;28;20035;-62
2022/08/08 11:34:36;;;;;;;1.13;0.60;;;;;;;26.31;46.26;102528.31;5062823;28;20025;-63
2022/08/08 11:37:02;;;;;;;1.23;0.60;;;;;;;26.36;44.96;102531.84;5064368;28;20192;-62
2022/08/08 11:39:29;;;;;;;1.13;0.70;;;;;;;26.32;45.01;102528.31;5064463;28;20519;-62
2022/08/08 11:41:55;;;;;;;1.50;0.60;;;;;;;26.17;43.83;102525.78;5062904;28;20107;-63
2022/08/08 11:44:22;;;;;;;2.88;0.50;;;;;;;26.35;44.24;102522.13;5067157;28;20116;-62
2022/08/08 11:46:47;;;;;;;2.15;0.50;;;;;;;26.52;43.35;102529.94;5064576;28;20532;-62
2022/08/08 11:49:12;;;;;;;1.83;0.80;;;;;;;26.62;42.33;102526.31;5060049;28;20202;-63
2022/08/08 11:51:39;;;;;;;3.05;0.75;;;;;;;26.54;42.83;102522.84;5062916;28;20114;-63